Terminal Aerodrome Forecast
Issued by NWS Milwaukee/Sullivan, WI

Home | Current Version | Previous Version | Text Only | Print | Product List | Glossary On
Versions: 1 2 3 4 5 6 7 8 9 10 11 12 13 14 15 16 17 18 19 20 21 22 23 24 25 26 27 28 29 30 31 32 33 34 35 36 37 38 39 40 41 42 43 44 45 46 47 48 49 50
000
FTUS43 KMKX 241424 AAA
TAFMKE
TAF AMD
KMKE 241424Z 2414/2518 17007KT P6SM -SHRA OVC080
     FM241900 11008KT P6SM -SHRA OVC050
     FM242200 10009KT 3SM -SHRA BR OVC040
     FM250200 13009KT 3SM BR VCSH OVC035 WS020/19045KT
     FM250500 16010KT 3SM SHRA BR OVC035 WS020/20045KT
     FM251300 18012G24KT 3SM SHRA BR OVC025
     FM251700 21018G28KT 6SM SHRA BR SCT030=

USA.gov is the U.S. government's official web portal to all federal, state and local government web resources and services.